Time;durP1;ratioP1;P1;durP2;ratioP2;P2;SDS_P1;SDS_P2;PMS_P1;PMS_P2;Temp;Humidity;BMP_temperature;BMP_pressure;BME280_temperature;BME280_humidity;BME280_pressure;Samples;Min_cycle;Max_cycle;Signal;HPM_P1;HPM_P2
2022/12/16 00:04:06;;;;;;;18.50;13.60;;;;;;;-9.00;100.00;97583.97;15291536;19;20015;-79
2022/12/16 00:09:33;;;;;;;19.50;14.50;;;;;;;-9.02;100.00;97571.00;15289677;19;20739;-80
2022/12/16 00:14:58;;;;;;;22.47;16.57;;;;;;;-9.09;100.00;97558.25;15294248;19;20017;-79
2022/12/16 00:20:23;;;;;;;21.65;16.67;;;;;;;-9.13;100.00;97565.34;15294317;19;20018;-79
2022/12/16 00:25:51;;;;;;;20.53;16.17;;;;;;;-9.18;100.00;97565.53;15297005;19;20038;-79
2022/12/16 00:31:17;;;;;;;23.40;16.90;;;;;;;-9.15;100.00;97560.19;15307189;19;20734;-79
2022/12/16 00:36:42;;;;;;;20.23;16.10;;;;;;;-9.17;100.00;97558.53;15311899;19;20010;-79
2022/12/16 00:42:09;;;;;;;20.10;16.17;;;;;;;-9.20;100.00;97561.28;15309731;19;20018;-79
2022/12/16 00:47:36;;;;;;;19.20;14.33;;;;;;;-9.27;100.00;97567.66;15313095;19;20708;-79
2022/12/16 00:53:01;;;;;;;18.27;13.70;;;;;;;-9.23;100.00;97579.66;15318311;19;20025;-79
2022/12/16 00:58:29;;;;;;;17.90;13.77;;;;;;;-9.23;100.00;97571.84;15313553;19;20958;-79
2022/12/16 01:04:00;;;;;;;18.87;14.50;;;;;;;-9.17;100.00;97585.47;15301565;19;20044;-79
2022/12/16 01:09:25;;;;;;;;;;;;;;;-9.20;100.00;97584.75;15301815;19;20018;-80
2022/12/16 01:14:52;;;;;;;19.03;13.00;;;;;;;-9.22;100.00;97583.94;15333573;19;19918;-79
2022/12/16 01:20:18;;;;;;;17.67;13.60;;;;;;;-9.20;100.00;97593.44;15314485;19;20011;-79
2022/12/16 01:25:43;;;;;;;16.80;13.40;;;;;;;-9.15;100.00;97590.66;15305316;19;20026;-80
2022/12/16 01:31:12;;;;;;;19.90;14.10;;;;;;;-9.10;100.00;97580.03;15312466;19;20010;-80
2022/12/16 01:36:36;;;;;;;18.00;14.13;;;;;;;-9.07;100.00;97587.75;15316761;19;20031;-80
2022/12/16 01:42:01;;;;;;;19.17;14.50;;;;;;;-9.04;100.00;97578.03;15302670;19;20035;-80
2022/12/16 01:47:34;;;;;;;18.77;14.07;;;;;;;-8.98;100.00;97571.72;15307929;19;20371;-80
2022/12/16 01:53:05;;;;;;;17.90;14.40;;;;;;;-8.98;100.00;97562.13;15304903;19;20051;-80
2022/12/16 01:58:30;;;;;;;;;;;;;;;-8.95;100.00;97563.78;15299512;19;20054;-82
2022/12/16 02:04:09;;;;;;;20.63;15.00;;;;;;;-8.91;100.00;97561.88;15304799;19;19926;-83
2022/12/16 02:09:34;;;;;;;25.20;18.90;;;;;;;-8.84;100.00;97573.75;15305546;19;20447;-81
2022/12/16 02:15:21;;;;;;;31.00;23.57;;;;;;;-8.76;100.00;97563.84;15297437;19;20027;-81
2022/12/16 02:21:13;;;;;;;27.53;20.57;;;;;;;-8.73;100.00;97576.78;15298602;19;20024;-80
2022/12/16 02:27:17;;;;;;;20.00;15.63;;;;;;;-8.78;100.00;97576.16;15302401;19;20044;-81
2022/12/16 02:32:55;;;;;;;26.73;19.10;;;;;;;-8.79;100.00;97587.50;15297485;19;20025;-81
2022/12/16 02:38:31;;;;;;;24.73;18.23;;;;;;;-8.81;100.00;97586.69;15299115;19;20021;-81
2022/12/16 02:44:00;;;;;;;23.67;17.35;;;;;;;-8.80;100.00;97584.94;15297991;19;20015;-81
2022/12/16 02:49:56;;;;;;;22.20;17.05;;;;;;;-8.81;100.00;97578.88;15302608;19;20015;-82
2022/12/16 02:55:24;;;;;;;21.52;16.80;;;;;;;-8.83;100.00;97583.31;15309957;19;20040;-81
2022/12/16 03:00:59;;;;;;;21.50;16.50;;;;;;;-8.82;100.00;97587.63;15320649;19;20023;-80
2022/12/16 03:06:28;;;;;;;20.50;15.93;;;;;;;-8.90;100.00;97587.06;15338303;19;20029;-81
2022/12/16 03:11:55;;;;;;;22.80;15.27;;;;;;;-8.93;100.00;97580.19;15298994;19;20648;-80
2022/12/16 03:17:22;;;;;;;28.75;21.33;;;;;;;-8.92;100.00;97591.50;15297771;19;20015;-80
2022/12/16 03:22:52;;;;;;;23.30;17.07;;;;;;;-8.89;100.00;97586.16;15294139;19;20016;-80
2022/12/16 03:28:28;;;;;;;18.10;14.73;;;;;;;-9.01;100.00;97592.72;15298562;19;20027;-81
2022/12/16 03:33:58;;;;;;;21.60;16.10;;;;;;;-9.13;100.00;97596.66;15296690;19;20009;-81
2022/12/16 03:39:26;;;;;;;20.23;15.63;;;;;;;-9.17;100.00;97595.06;15295382;19;20007;-82
2022/12/16 03:44:52;;;;;;;25.13;19.42;;;;;;;-9.23;100.00;97597.94;15295892;19;20070;-81
2022/12/16 03:50:17;;;;;;;25.47;18.80;;;;;;;-9.21;100.00;97593.47;15293048;19;20070;-80
2022/12/16 03:55:44;;;;;;;25.77;17.50;;;;;;;-9.22;100.00;97591.78;15298030;19;20042;-81
2022/12/16 04:01:09;;;;;;;23.83;17.43;;;;;;;-9.26;100.00;97588.44;15295872;19;20089;-81
2022/12/16 04:06:28;;;;;;;24.77;18.60;;;;;;;-9.27;100.00;97601.56;15294004;19;20010;-81
2022/12/16 04:28:54;;;;;;;31.10;20.90;;;;;;;-9.43;100.00;97625.59;15296882;19;20024;-81
2022/12/16 04:34:28;;;;;;;27.73;20.70;;;;;;;-9.45;100.00;97624.78;15290767;19;20081;-81
